Current | Forecast
Updated: 8:00 AM JST on October 21, 2017
Observed at Kagoshima Airport, Japan
Temperature 66°F
Humidity 94%
Dew Point 64°F
Wind West at 5 mph
Pressure 29.77 in (Falling)
Conditions Mostly Cloudy
Visibility 6.2 miles
UV 1 out of 16
Clouds (FEW) : 600 ft
Scattered Clouds (SCT) : 2500 ft
Mostly Cloudy (BKN) : 6000 ft
Yesterday's Maximum 70°F
Yesterday's Minimum 64°F approx.
Yesterday's Cooling Degree Days 2 approx.
Sunrise6:23 AM JST
Sunset5:37 PM JST
Moon Rise7:23 AM JST
Moon Set6:48 PM JST
Moon PhaseMoon Phase
New Moon
Raw METARMETAR RJFK 202300Z 27004KT 240V310 9999 FEW006 SCT025 BKN060 19/18 Q1008 RMK 1ST006 3CU025 5SC060 A2979


Monday
. High: 71° F.
Tuesday
. High: 73° F.
Wednesday
. High: 73° F.
Thursday
. High: 69° F.
Friday
. High: 65° F.
Saturday
. High: 78° F.
Sunday
. High: 75° F.
Monday
. High: 71° F.

Units: English | Metric

Find the Weather for any City, State or Zipcode, or Country:

U.S. State List | Severe Weather | Tropical Storms | Ski Conditions
United States | Canada | Central America | South America | Asia | Europe | Australia | Africa | Islands

Weather Underground

© Copyright 2017
The Weather Company, LLC